Time;durP1;ratioP1;P1;durP2;ratioP2;P2;SDS_P1;SDS_P2;PMS_P1;PMS_P2;Temp;Humidity;BMP_temperature;BMP_pressure;BME280_temperature;BME280_humidity;BME280_pressure;Samples;Min_cycle;Max_cycle;Signal;HPM_P1;HPM_P2
2023/12/09 00:00:58;;;;;;;12.02;3.92;;;7.30;99.90;;;;;;4967726;28;20031;-62
2023/12/09 00:03:23;;;;;;;10.27;2.78;;;7.30;99.90;;;;;;4970485;28;20039;-62
2023/12/09 00:05:49;;;;;;;6.78;3.40;;;7.20;99.90;;;;;;4966534;28;20596;-62
2023/12/09 00:08:14;;;;;;;9.45;4.45;;;7.20;99.90;;;;;;4967458;28;20038;-62
2023/12/09 00:10:40;;;;;;;8.05;3.25;;;7.30;99.90;;;;;;4969969;28;20408;-61
2023/12/09 00:13:05;;;;;;;11.07;3.60;;;7.20;99.90;;;;;;4969320;28;20046;-63
2023/12/09 00:15:31;;;;;;;10.18;3.20;;;7.20;99.90;;;;;;4960550;28;20041;-62
2023/12/09 00:17:56;;;;;;;11.15;3.42;;;7.20;99.90;;;;;;4971403;28;20113;-60
2023/12/09 00:20:22;;;;;;;9.38;3.65;;;7.20;99.90;;;;;;4970531;28;20019;-62
2023/12/09 00:22:47;;;;;;;12.65;3.88;;;7.20;99.90;;;;;;4968019;28;20023;-61
2023/12/09 00:25:13;;;;;;;8.13;2.95;;;7.30;99.90;;;;;;4965364;28;20489;-62
2023/12/09 00:27:38;;;;;;;8.68;3.15;;;7.30;99.90;;;;;;4971009;28;20027;-61
2023/12/09 00:30:08;;;;;;;11.00;3.67;;;7.30;99.90;;;;;;4967202;28;20082;-62
2023/12/09 00:32:34;;;;;;;14.60;3.40;;;7.30;99.90;;;;;;4966607;28;20034;-62
2023/12/09 00:35:00;;;;;;;13.07;3.90;;;7.40;99.90;;;;;;4965618;28;20022;-62
2023/12/09 00:37:26;;;;;;;11.85;2.83;;;7.40;99.90;;;;;;4969295;28;20073;-61
2023/12/09 00:39:51;;;;;;;8.93;2.88;;;7.50;99.90;;;;;;4965011;28;20047;-61
2023/12/09 00:42:17;;;;;;;12.25;2.78;;;7.50;99.90;;;;;;4968249;28;20125;-61
2023/12/09 00:44:42;;;;;;;8.20;2.85;;;7.50;99.90;;;;;;4962193;28;20030;-62
2023/12/09 00:47:08;;;;;;;13.80;3.03;;;7.50;99.90;;;;;;4963018;28;20919;-62
2023/12/09 00:49:34;;;;;;;15.98;2.92;;;7.50;99.90;;;;;;4960821;28;20035;-62
2023/12/09 00:51:59;;;;;;;14.90;2.85;;;7.60;99.90;;;;;;4970027;28;20090;-62
2023/12/09 00:54:25;;;;;;;12.82;3.17;;;7.50;99.90;;;;;;4968836;28;20113;-62
2023/12/09 00:56:51;;;;;;;7.93;2.70;;;7.50;99.90;;;;;;4969533;28;20109;-63
2023/12/09 00:59:16;;;;;;;11.05;2.70;;;7.50;99.90;;;;;;4967635;28;20460;-61
2023/12/09 01:01:42;;;;;;;10.63;2.88;;;7.50;99.90;;;;;;4962730;28;20019;-61
2023/12/09 01:04:07;;;;;;;12.75;2.60;;;7.50;99.90;;;;;;4968849;28;20406;-62
2023/12/09 01:06:33;;;;;;;7.90;2.60;;;7.60;99.90;;;;;;4966258;28;20031;-61
2023/12/09 01:08:58;;;;;;;15.60;2.67;;;7.60;99.90;;;;;;4966402;28;20078;-62
2023/12/09 01:11:24;;;;;;;10.73;2.72;;;7.60;99.90;;;;;;4966758;28;20034;-62
2023/12/09 01:13:50;;;;;;;12.65;2.80;;;7.60;99.90;;;;;;4967974;28;20027;-62
2023/12/09 01:16:16;;;;;;;14.10;3.03;;;7.60;99.90;;;;;;4966075;28;20038;-62
2023/12/09 01:18:41;;;;;;;17.38;3.30;;;7.50;99.90;;;;;;4968474;28;20027;-62
2023/12/09 01:21:07;;;;;;;22.95;3.08;;;7.50;99.90;;;;;;4967875;28;20043;-61
2023/12/09 01:23:32;;;;;;;9.00;2.33;;;7.50;99.90;;;;;;4966530;28;20041;-62
2023/12/09 01:25:58;;;;;;;13.93;2.30;;;7.50;99.90;;;;;;4968474;28;20388;-61
2023/12/09 01:28:23;;;;;;;13.25;2.80;;;7.40;99.90;;;;;;4967351;28;20031;-62
2023/12/09 01:30:49;;;;;;;18.73;2.90;;;7.50;99.90;;;;;;4963299;28;20078;-62
2023/12/09 01:33:14;;;;;;;13.70;2.55;;;7.50;99.90;;;;;;4966266;28;20062;-62
2023/12/09 01:35:40;;;;;;;20.15;3.33;;;7.60;99.90;;;;;;4963240;28;20028;-61
2023/12/09 01:38:05;;;;;;;12.68;2.47;;;7.70;99.90;;;;;;4966480;28;20065;-62
2023/12/09 01:40:31;;;;;;;11.07;2.20;;;7.80;99.90;;;;;;4967353;28;20027;-61
2023/12/09 01:42:56;;;;;;;18.17;2.58;;;7.80;99.90;;;;;;4969326;28;20034;-62
2023/12/09 01:45:22;;;;;;;15.82;2.63;;;7.70;99.90;;;;;;4965413;28;20034;-63
2023/12/09 01:47:48;;;;;;;14.63;1.95;;;7.80;99.90;;;;;;4969946;28;20030;-62
2023/12/09 01:50:17;;;;;;;20.40;3.08;;;7.80;99.90;;;;;;4967336;28;20049;-62
2023/12/09 01:52:43;;;;;;;12.25;2.42;;;7.70;99.90;;;;;;4968863;28;20031;-61
2023/12/09 01:55:10;;;;;;;6.18;1.90;;;7.80;99.90;;;;;;4966337;28;20401;-62
2023/12/09 01:57:36;;;;;;;12.00;2.10;;;7.80;99.90;;;;;;4972485;28;20102;-62
2023/12/09 02:00:03;;;;;;;17.77;2.80;;;7.80;99.90;;;;;;4969453;28;20030;-62
2023/12/09 02:02:30;;;;;;;13.13;2.58;;;7.80;99.90;;;;;;4969304;28;21661;-62
2023/12/09 02:04:55;;;;;;;22.52;3.33;;;7.80;99.90;;;;;;4969376;28;20042;-62
2023/12/09 02:07:21;;;;;;;9.70;2.60;;;7.80;99.90;;;;;;4972640;28;20404;-63
2023/12/09 02:09:47;;;;;;;12.10;2.30;;;7.80;99.90;;;;;;4972395;28;20407;-62
2023/12/09 02:12:23;;;;;;;13.32;2.72;;;7.80;99.90;;;;;;4972551;28;20030;-62
2023/12/09 02:14:52;;;;;;;18.63;2.95;;;7.70;99.90;;;;;;4972016;28;20030;-61
2023/12/09 02:17:25;;;;;;;17.67;3.03;;;7.70;99.90;;;;;;4967075;28;20030;-62
2023/12/09 02:19:51;;;;;;;10.20;2.27;;;7.70;99.90;;;;;;4969595;28;20030;-62
2023/12/09 02:22:16;;;;;;;18.08;2.25;;;7.70;99.90;;;;;;4966932;28;20049;-62
2023/12/09 02:24:42;;;;;;;12.55;2.33;;;7.60;99.90;;;;;;4969036;28;20081;-62
2023/12/09 02:27:18;;;;;;;12.80;2.67;;;7.50;99.90;;;;;;4972310;28;20066;-62
2023/12/09 02:29:49;;;;;;;12.63;2.90;;;7.40;99.90;;;;;;4968580;28;20035;-62
2023/12/09 02:32:19;;;;;;;15.57;2.45;;;7.20;99.90;;;;;;4967453;28;20425;-62
2023/12/09 02:34:46;;;;;;;11.77;2.40;;;7.20;99.90;;;;;;4970411;28;20098;-62
2023/12/09 02:37:13;;;;;;;7.55;2.35;;;7.10;99.90;;;;;;4969431;28;20402;-62
2023/12/09 02:39:39;;;;;;;13.75;2.80;;;7.00;99.90;;;;;;4968854;28;20553;-62
2023/12/09 02:42:06;;;;;;;14.55;2.97;;;6.90;99.90;;;;;;4970586;28;20027;-62
2023/12/09 02:44:32;;;;;;;13.10;2.42;;;6.80;99.90;;;;;;4970753;28;20033;-62
2023/12/09 02:46:57;;;;;;;15.20;3.38;;;6.70;99.90;;;;;;4965493;28;20033;-62
2023/12/09 02:49:23;;;;;;;10.52;3.05;;;6.60;99.90;;;;;;4967037;28;20034;-62
2023/12/09 02:51:49;;;;;;;10.90;3.08;;;6.50;99.90;;;;;;4969027;28;20054;-62
2023/12/09 02:54:15;;;;;;;9.75;2.75;;;6.50;99.90;;;;;;4970563;28;20034;-61
2023/12/09 02:56:41;;;;;;;15.20;3.03;;;6.40;99.90;;;;;;4971674;28;20023;-62
2023/12/09 02:59:06;;;;;;;6.25;3.38;;;6.40;99.90;;;;;;4971642;28;20081;-62
2023/12/09 03:01:32;;;;;;;9.68;3.83;;;6.30;99.90;;;;;;4971493;28;20039;-62
2023/12/09 03:03:57;;;;;;;9.00;3.00;;;6.20;99.90;;;;;;4966339;28;20110;-62
2023/12/09 03:06:23;;;;;;;12.93;3.58;;;6.20;99.90;;;;;;4966858;28;20639;-62
2023/12/09 03:08:48;;;;;;;14.80;3.28;;;6.10;99.90;;;;;;4969319;28;20420;-61
2023/12/09 03:11:14;;;;;;;15.63;3.28;;;6.10;99.90;;;;;;4970621;28;20069;-62
2023/12/09 03:13:39;;;;;;;15.13;3.60;;;6.10;99.90;;;;;;4967606;28;20529;-62
2023/12/09 03:16:05;;;;;;;9.02;2.95;;;6.10;99.90;;;;;;4970169;28;22060;-62
2023/12/09 03:18:30;;;;;;;18.15;3.35;;;6.10;99.90;;;;;;4962909;28;20123;-62
2023/12/09 03:20:56;;;;;;;13.48;3.15;;;6.00;99.90;;;;;;4968960;28;20027;-61
2023/12/09 03:23:21;;;;;;;9.00;2.72;;;6.00;99.90;;;;;;4968813;28;20505;-62
2023/12/09 03:25:47;;;;;;;12.68;2.88;;;5.90;99.90;;;;;;4971347;28;20023;-61
2023/12/09 03:28:13;;;;;;;8.63;2.45;;;5.80;99.90;;;;;;4971490;28;20027;-62
2023/12/09 03:30:38;;;;;;;8.15;2.42;;;5.80;99.90;;;;;;4966443;28;20028;-62
2023/12/09 03:33:04;;;;;;;9.02;2.72;;;5.80;99.90;;;;;;4971254;28;20224;-62
2023/12/09 03:35:29;;;;;;;13.60;3.03;;;5.70;99.90;;;;;;4967348;28;20397;-61
2023/12/09 03:37:55;;;;;;;10.07;2.50;;;5.70;99.90;;;;;;4967917;28;20572;-62
2023/12/09 03:40:20;;;;;;;15.25;3.20;;;5.60;99.90;;;;;;4970000;28;20034;-62
2023/12/09 03:42:46;;;;;;;7.28;2.97;;;5.50;99.90;;;;;;4968275;28;20019;-62
2023/12/09 03:45:11;;;;;;;10.65;3.05;;;5.40;99.90;;;;;;4971042;28;20031;-62
2023/12/09 03:47:37;;;;;;;12.50;2.60;;;5.40;99.90;;;;;;4970923;28;20026;-63
2023/12/09 03:50:02;;;;;;;11.18;3.33;;;5.30;99.90;;;;;;4968229;28;20023;-61
2023/12/09 03:52:28;;;;;;;14.57;3.20;;;5.30;99.90;;;;;;4969875;28;20043;-63
2023/12/09 03:54:54;;;;;;;8.15;2.40;;;5.20;99.90;;;;;;4966613;28;20037;-63
2023/12/09 03:57:19;;;;;;;14.95;2.75;;;5.30;99.90;;;;;;4969513;28;20027;-63
2023/12/09 03:59:45;;;;;;;5.82;2.22;;;5.20;99.90;;;;;;4966687;28;20465;-59
2023/12/09 04:02:10;;;;;;;8.52;2.85;;;5.20;99.90;;;;;;4967947;28;20111;-63
2023/12/09 04:04:40;;;;;;;7.63;2.10;;;5.10;99.90;;;;;;4971628;28;20030;-61
2023/12/09 04:07:06;;;;;;;9.18;2.20;;;5.10;99.90;;;;;;4972341;28;20110;-61
2023/12/09 04:09:31;;;;;;;11.52;2.60;;;5.00;99.90;;;;;;4969256;28;20110;-62
2023/12/09 04:11:57;;;;;;;9.43;2.40;;;5.00;99.90;;;;;;4963012;28;20050;-61
2023/12/09 04:14:22;;;;;;;15.30;2.90;;;4.90;99.90;;;;;;4966723;28;20409;-60
2023/12/09 04:16:48;;;;;;;6.78;3.03;;;4.90;99.90;;;;;;4966559;28;20105;-61
2023/12/09 04:19:13;;;;;;;8.68;2.70;;;4.90;99.90;;;;;;4968749;28;20429;-61
2023/12/09 04:21:39;;;;;;;8.35;3.03;;;4.80;99.90;;;;;;4967129;28;21611;-61
2023/12/09 04:24:05;;;;;;;9.10;4.25;;;4.80;99.90;;;;;;4966461;28;20038;-61
2023/12/09 04:26:30;;;;;;;9.75;3.65;;;4.60;99.90;;;;;;4970010;28;20042;-61
2023/12/09 04:28:56;;;;;;;13.93;3.63;;;4.50;99.90;;;;;;4966635;28;20023;-62
2023/12/09 04:31:21;;;;;;;15.65;3.30;;;4.50;99.90;;;;;;4966760;28;20065;-60
2023/12/09 04:33:47;;;;;;;9.35;2.95;;;4.40;99.90;;;;;;4971872;28;20030;-62
2023/12/09 04:36:13;;;;;;;7.35;2.92;;;4.40;99.90;;;;;;4963606;28;20035;-62
2023/12/09 04:38:39;;;;;;;16.25;2.95;;;4.40;99.90;;;;;;4967345;28;20035;-61
2023/12/09 04:41:04;;;;;;;11.93;2.63;;;4.40;99.90;;;;;;4966518;28;20042;-61
2023/12/09 04:43:30;;;;;;;11.18;2.70;;;4.40;99.90;;;;;;4970269;28;20038;-62
2023/12/09 04:45:55;;;;;;;10.25;2.47;;;4.40;99.90;;;;;;4967951;28;20106;-60
2023/12/09 04:48:21;;;;;;;9.13;3.20;;;4.40;99.90;;;;;;4969885;28;20054;-62
2023/12/09 04:50:48;;;;;;;9.85;3.20;;;4.30;99.90;;;;;;4966837;28;20027;-62
2023/12/09 04:53:13;;;;;;;6.30;3.42;;;4.20;99.90;;;;;;4967562;28;20670;-62
2023/12/09 04:55:40;;;;;;;13.93;3.60;;;4.30;99.90;;;;;;4961737;28;20035;-62
2023/12/09 04:58:05;;;;;;;9.85;3.45;;;4.30;99.90;;;;;;4963821;28;20027;-62
2023/12/09 05:00:31;;;;;;;9.57;3.17;;;4.20;99.90;;;;;;4966080;28;20030;-62
2023/12/09 05:02:57;;;;;;;9.05;3.40;;;4.20;99.90;;;;;;4966854;28;20031;-60
2023/12/09 05:05:22;;;;;;;6.05;3.40;;;4.10;99.90;;;;;;4970204;28;20448;-62
2023/12/09 05:07:48;;;;;;;11.75;3.50;;;4.10;99.90;;;;;;4967272;28;20470;-62
2023/12/09 05:10:13;;;;;;;6.63;3.60;;;4.10;99.90;;;;;;4966443;28;20046;-62
2023/12/09 05:12:40;;;;;;;10.77;3.20;;;4.10;99.90;;;;;;4968220;28;20056;-61
2023/12/09 05:15:06;;;;;;;15.65;3.63;;;4.10;99.90;;;;;;4966721;28;20023;-62
2023/12/09 05:17:32;;;;;;;10.80;4.38;;;4.00;99.90;;;;;;4966831;28;20030;-61
2023/12/09 05:19:58;;;;;;;8.90;3.63;;;3.90;99.90;;;;;;4968191;28;20054;-62
2023/12/09 05:22:24;;;;;;;9.68;3.80;;;3.90;99.90;;;;;;4968522;28;20575;-60
2023/12/09 05:24:50;;;;;;;9.13;3.40;;;4.00;99.90;;;;;;4964627;28;20161;-62
2023/12/09 05:27:16;;;;;;;9.57;4.45;;;4.10;99.90;;;;;;4963094;28;20023;-60
2023/12/09 05:29:43;;;;;;;12.90;4.03;;;4.00;99.90;;;;;;4965916;28;20031;-60
2023/12/09 05:32:08;;;;;;;6.18;3.53;;;4.00;99.90;;;;;;4965713;28;20041;-61
2023/12/09 05:34:34;;;;;;;9.07;3.25;;;3.90;99.90;;;;;;4965627;28;20027;-62
2023/12/09 05:36:59;;;;;;;6.53;3.08;;;3.80;99.90;;;;;;4965715;28;20083;-61
2023/12/09 05:39:25;;;;;;;9.45;3.33;;;3.80;99.90;;;;;;4968662;28;20086;-62
2023/12/09 05:41:50;;;;;;;10.25;3.95;;;3.80;99.90;;;;;;4967119;28;20027;-61
2023/12/09 05:44:16;;;;;;;8.52;3.80;;;3.80;99.90;;;;;;4969018;28;20062;-62
2023/12/09 05:46:41;;;;;;;11.00;3.58;;;3.80;99.90;;;;;;4967808;28;20062;-62
2023/12/09 05:49:07;;;;;;;10.32;4.00;;;3.80;99.90;;;;;;4967585;28;20073;-62
2023/12/09 05:51:32;;;;;;;12.15;4.28;;;3.80;99.90;;;;;;4963603;28;20031;-61
2023/12/09 05:53:58;;;;;;;16.88;4.47;;;3.80;99.90;;;;;;4965873;28;20031;-61
2023/12/09 05:56:23;;;;;;;13.20;4.72;;;3.80;99.90;;;;;;4966949;28;20027;-61
2023/12/09 05:58:49;;;;;;;11.00;3.97;;;3.90;99.90;;;;;;4968918;28;20035;-61
2023/12/09 06:01:14;;;;;;;9.88;3.85;;;3.90;99.90;;;;;;4964396;28;20043;-62
2023/12/09 06:03:40;;;;;;;10.52;4.97;;;3.90;99.90;;;;;;4967615;28;20110;-61
2023/12/09 06:06:06;;;;;;;10.95;4.25;;;3.90;99.90;;;;;;4963770;28;20046;-61
2023/12/09 06:08:32;;;;;;;12.85;4.18;;;3.90;99.90;;;;;;4965351;28;20041;-62
2023/12/09 06:10:58;;;;;;;6.55;3.55;;;3.80;99.90;;;;;;4963410;28;20027;-61
2023/12/09 06:13:24;;;;;;;10.02;3.47;;;3.80;99.90;;;;;;4965850;28;20710;-62
2023/12/09 06:15:49;;;;;;;11.70;4.85;;;3.80;99.90;;;;;;4967160;28;20042;-61
2023/12/09 06:18:15;;;;;;;8.15;3.88;;;3.80;99.90;;;;;;4963722;28;20433;-61
2023/12/09 06:20:40;;;;;;;11.98;4.28;;;3.70;99.90;;;;;;4962252;28;20468;-62
2023/12/09 06:23:06;;;;;;;9.80;4.20;;;3.70;99.90;;;;;;4965268;28;20073;-62
2023/12/09 06:25:32;;;;;;;9.93;4.20;;;3.60;99.90;;;;;;4962153;28;20035;-61
2023/12/09 06:27:57;;;;;;;11.82;5.15;;;3.70;99.90;;;;;;4967893;28;20073;-60
2023/12/09 06:30:23;;;;;;;16.70;5.78;;;3.70;99.90;;;;;;4964536;28;20077;-62
2023/12/09 06:32:48;;;;;;;9.55;4.32;;;3.70;99.90;;;;;;4966979;28;20022;-61
2023/12/09 06:35:14;;;;;;;12.05;4.28;;;3.70;99.90;;;;;;4969584;28;20414;-61
2023/12/09 06:37:40;;;;;;;12.18;4.75;;;3.70;99.90;;;;;;4968838;28;20045;-61
2023/12/09 06:40:06;;;;;;;9.63;4.82;;;3.70;99.90;;;;;;4966606;28;20033;-62
2023/12/09 06:42:32;;;;;;;14.45;4.45;;;3.70;99.90;;;;;;4970300;28;20117;-60
2023/12/09 06:44:58;;;;;;;8.23;4.30;;;3.70;99.90;;;;;;4968886;28;20034;-61
2023/12/09 06:47:24;;;;;;;10.02;4.00;;;3.60;99.90;;;;;;4966940;28;20142;-61
2023/12/09 06:49:49;;;;;;;8.48;4.25;;;3.50;99.90;;;;;;4969157;28;20035;-62
2023/12/09 06:52:15;;;;;;;7.88;3.65;;;3.40;99.90;;;;;;4967328;28;20019;-62
2023/12/09 06:54:40;;;;;;;14.60;3.80;;;3.40;99.90;;;;;;4970197;28;20074;-62
2023/12/09 06:57:06;;;;;;;7.72;4.40;;;3.40;99.90;;;;;;4967016;28;20027;-61
2023/12/09 06:59:31;;;;;;;10.20;5.25;;;3.50;99.90;;;;;;4968643;28;20497;-61
2023/12/09 07:01:57;;;;;;;11.73;4.68;;;3.60;99.90;;;;;;4968958;28;20046;-61
2023/12/09 07:04:23;;;;;;;16.65;5.00;;;3.70;99.90;;;;;;4972612;28;20109;-62
2023/12/09 07:06:49;;;;;;;10.48;4.78;;;3.70;99.90;;;;;;4969797;28;20039;-61
2023/12/09 07:09:15;;;;;;;9.77;4.72;;;3.80;99.90;;;;;;4970466;28;20109;-63
2023/12/09 07:11:40;;;;;;;11.55;5.47;;;3.90;99.90;;;;;;4971527;28;20561;-64
2023/12/09 07:14:06;;;;;;;16.88;5.13;;;3.90;99.90;;;;;;4969489;28;20038;-61
2023/12/09 07:16:31;;;;;;;8.40;4.50;;;4.00;99.90;;;;;;4965155;28;20023;-64
2023/12/09 07:19:00;;;;;;;9.18;4.82;;;4.00;99.90;;;;;;4971115;28;20381;-64
2023/12/09 07:21:27;;;;;;;9.57;4.93;;;4.00;99.90;;;;;;4967943;28;20030;-62
2023/12/09 07:23:53;;;;;;;10.45;4.60;;;4.00;99.90;;;;;;4961315;28;20035;-62
2023/12/09 07:26:18;;;;;;;16.02;6.25;;;4.00;99.90;;;;;;4970280;28;20041;-64
2023/12/09 07:28:45;;;;;;;10.73;5.28;;;4.00;99.90;;;;;;4966034;28;20039;-61
2023/12/09 07:31:10;;;;;;;8.68;4.97;;;4.00;99.90;;;;;;4969066;28;20397;-62
2023/12/09 07:33:36;;;;;;;11.18;5.07;;;4.00;99.90;;;;;;4969943;28;20019;-61
2023/12/09 07:36:02;;;;;;;12.27;5.28;;;3.90;99.90;;;;;;4970328;28;20081;-62
2023/12/09 07:38:27;;;;;;;15.05;4.80;;;3.90;99.90;;;;;;4968979;28;20825;-61
2023/12/09 07:40:53;;;;;;;11.98;5.25;;;3.90;99.90;;;;;;4967954;28;20034;-61
2023/12/09 07:43:19;;;;;;;16.77;5.38;;;3.90;99.90;;;;;;4967509;28;20018;-62
2023/12/09 07:45:44;;;;;;;10.48;5.75;;;4.00;99.90;;;;;;4966801;28;20019;-62
2023/12/09 07:48:10;;;;;;;7.65;4.43;;;4.00;99.90;;;;;;4971085;28;20488;-62
2023/12/09 07:50:35;;;;;;;15.82;5.68;;;4.00;99.90;;;;;;4969543;28;20070;-64
2023/12/09 07:53:02;;;;;;;11.88;5.03;;;4.00;99.90;;;;;;4965357;28;20054;-61
2023/12/09 07:55:28;;;;;;;16.65;6.75;;;4.10;99.90;;;;;;4971506;28;20484;-62
2023/12/09 07:57:53;;;;;;;15.27;6.00;;;4.20;99.90;;;;;;4966601;28;20038;-62
2023/12/09 08:00:19;;;;;;;15.40;5.85;;;4.30;99.90;;;;;;4967980;28;20023;-62
2023/12/09 08:02:44;;;;;;;16.55;6.43;;;4.40;99.90;;;;;;4970979;28;20516;-64
2023/12/09 08:05:10;;;;;;;17.52;7.38;;;4.50;99.90;;;;;;4965993;28;20041;-62
2023/12/09 08:07:36;;;;;;;16.55;7.00;;;4.60;99.90;;;;;;4969963;28;20035;-62
2023/12/09 08:10:01;;;;;;;21.02;6.57;;;4.70;99.90;;;;;;4967955;28;20394;-62
2023/12/09 08:12:27;;;;;;;17.20;7.53;;;4.80;99.90;;;;;;4970287;28;20106;-62
2023/12/09 08:14:52;;;;;;;19.05;7.05;;;4.90;99.90;;;;;;4967022;28;20110;-62
2023/12/09 08:17:18;;;;;;;19.30;8.25;;;5.10;99.90;;;;;;4965429;28;20580;-62
2023/12/09 08:19:44;;;;;;;18.67;8.98;;;5.20;99.90;;;;;;4969659;28;20481;-61
2023/12/09 08:22:09;;;;;;;31.15;9.60;;;5.30;99.90;;;;;;4969709;28;20038;-62
2023/12/09 08:24:35;;;;;;;31.40;9.25;;;5.40;99.90;;;;;;4969366;28;20030;-63
2023/12/09 08:27:00;;;;;;;21.92;8.50;;;5.50;99.90;;;;;;4968684;28;20039;-62
2023/12/09 08:29:26;;;;;;;20.48;9.50;;;5.60;99.90;;;;;;4965941;28;20089;-62
2023/12/09 08:31:51;;;;;;;26.90;9.90;;;5.70;99.90;;;;;;4967441;28;20062;-61
2023/12/09 08:34:17;;;;;;;28.17;9.93;;;5.80;99.90;;;;;;4970721;28;20118;-62
2023/12/09 08:36:43;;;;;;;23.33;9.68;;;5.90;99.90;;;;;;4970741;28;20031;-61
2023/12/09 08:39:08;;;;;;;23.13;9.50;;;5.90;99.90;;;;;;4963985;28;20524;-61
2023/12/09 08:41:34;;;;;;;30.65;9.65;;;6.00;99.90;;;;;;4970860;28;20110;-63
2023/12/09 08:44:01;;;;;;;26.08;8.13;;;6.10;99.90;;;;;;4968631;28;20023;-62
2023/12/09 08:46:26;;;;;;;18.48;7.47;;;6.20;99.90;;;;;;4969905;28;20035;-61
2023/12/09 08:48:52;;;;;;;19.58;6.70;;;6.20;99.90;;;;;;4965832;28;20034;-62
2023/12/09 08:51:17;;;;;;;20.75;6.22;;;6.30;99.90;;;;;;4967121;28;20053;-61
2023/12/09 08:53:43;;;;;;;21.38;7.30;;;6.30;99.90;;;;;;4969526;28;20477;-61
2023/12/09 08:56:08;;;;;;;20.42;6.97;;;6.40;99.90;;;;;;4967393;28;20104;-62
2023/12/09 08:58:34;;;;;;;16.15;7.43;;;6.50;99.90;;;;;;4965988;28;20460;-61
2023/12/09 09:01:00;;;;;;;22.45;7.43;;;6.50;99.90;;;;;;4966076;28;20022;-62
2023/12/09 09:03:25;;;;;;;27.13;7.65;;;6.50;99.90;;;;;;4966117;28;20070;-61
2023/12/09 09:05:51;;;;;;;21.77;7.32;;;6.60;99.90;;;;;;4968699;28;20030;-62
2023/12/09 09:08:17;;;;;;;19.30;7.70;;;6.70;99.90;;;;;;4966101;28;20520;-62
2023/12/09 09:10:43;;;;;;;28.02;6.88;;;6.70;99.90;;;;;;4969226;28;20027;-62
2023/12/09 09:13:09;;;;;;;26.52;6.97;;;6.70;99.90;;;;;;4966671;28;20504;-62
2023/12/09 09:15:35;;;;;;;23.65;6.75;;;6.70;99.90;;;;;;4966203;28;20132;-62
2023/12/09 09:18:01;;;;;;;21.77;6.53;;;6.80;99.90;;;;;;4965833;28;20019;-61
2023/12/09 09:20:27;;;;;;;18.05;5.88;;;6.80;99.90;;;;;;4968603;28;20031;-61
2023/12/09 09:22:52;;;;;;;17.40;5.82;;;6.90;99.90;;;;;;4966622;28;20445;-61
2023/12/09 09:25:18;;;;;;;19.77;6.38;;;6.90;99.90;;;;;;4968276;28;20058;-62
2023/12/09 09:27:43;;;;;;;27.15;6.78;;;7.00;99.90;;;;;;4961637;28;20030;-61
2023/12/09 09:30:09;;;;;;;14.52;6.65;;;7.10;99.90;;;;;;4964421;28;20038;-62
2023/12/09 09:32:35;;;;;;;22.48;6.60;;;7.10;99.90;;;;;;4965704;28;20472;-61
2023/12/09 09:35:00;;;;;;;18.70;5.80;;;7.20;99.90;;;;;;4968854;28;20031;-61
2023/12/09 09:37:26;;;;;;;20.42;5.20;;;7.30;99.90;;;;;;4963112;28;20039;-61
2023/12/09 09:39:52;;;;;;;24.23;5.05;;;7.40;99.90;;;;;;4966723;28;20034;-65
2023/12/09 09:42:32;;;;;;;25.77;5.40;;;7.40;99.90;;;;;;4962388;28;20043;-61
2023/12/09 09:45:21;;;;;;;19.50;5.13;;;7.50;99.90;;;;;;4963454;28;20031;-61
2023/12/09 09:47:50;;;;;;;17.40;5.03;;;7.60;99.90;;;;;;4964680;28;20031;-62
2023/12/09 09:50:22;;;;;;;15.05;4.57;;;7.70;99.90;;;;;;4967659;28;20055;-62
2023/12/09 09:52:50;;;;;;;21.80;4.78;;;7.70;99.90;;;;;;4963693;28;20492;-62
2023/12/09 09:55:20;;;;;;;23.63;4.15;;;7.70;99.90;;;;;;4962744;28;20082;-62
2023/12/09 09:57:48;;;;;;;20.60;4.97;;;7.80;99.90;;;;;;4959244;28;20023;-62
2023/12/09 10:00:15;;;;;;;14.40;4.25;;;7.90;99.90;;;;;;4967858;28;20110;-62
2023/12/09 10:02:43;;;;;;;16.17;3.90;;;7.90;99.90;;;;;;4969579;28;20031;-62
2023/12/09 10:05:09;;;;;;;17.90;3.90;;;8.00;99.90;;;;;;4970700;28;20035;-62
2023/12/09 10:07:36;;;;;;;14.77;3.50;;;8.00;99.90;;;;;;4967344;28;20090;-62
2023/12/09 10:10:03;;;;;;;16.08;4.38;;;8.10;99.90;;;;;;4967354;28;20118;-61
2023/12/09 10:12:29;;;;;;;16.70;3.78;;;8.20;99.90;;;;;;4965812;28;20034;-61
2023/12/09 10:14:56;;;;;;;14.38;4.03;;;8.20;99.90;;;;;;4968933;28;20023;-61
2023/12/09 10:17:22;;;;;;;24.08;3.72;;;8.30;99.90;;;;;;4968509;28;21480;-62
2023/12/09 10:19:48;;;;;;;13.23;3.60;;;8.30;99.90;;;;;;4968788;28;20030;-60
2023/12/09 10:22:13;;;;;;;13.05;2.83;;;8.40;99.90;;;;;;4968085;28;20110;-62
2023/12/09 10:24:39;;;;;;;15.10;3.88;;;8.50;99.90;;;;;;4971736;28;20046;-61
2023/12/09 10:27:05;;;;;;;19.40;4.22;;;8.60;99.90;;;;;;4966537;28;20449;-60
2023/12/09 10:29:31;;;;;;;18.10;3.58;;;8.70;99.90;;;;;;4966056;28;20034;-62
2023/12/09 10:32:00;;;;;;;13.77;3.33;;;8.80;99.90;;;;;;4969665;28;20074;-62
2023/12/09 10:34:25;;;;;;;14.70;4.35;;;8.80;99.90;;;;;;4969740;28;20069;-61
2023/12/09 10:36:51;;;;;;;15.15;3.92;;;8.90;99.90;;;;;;4971494;28;20493;-61
2023/12/09 10:39:19;;;;;;;24.73;4.00;;;9.00;99.90;;;;;;4969118;28;20034;-62
2023/12/09 10:41:45;;;;;;;23.00;4.95;;;9.10;99.90;;;;;;4970173;28;20026;-61
2023/12/09 10:44:11;;;;;;;11.50;3.53;;;9.20;99.90;;;;;;4966361;28;20034;-61
2023/12/09 10:46:36;;;;;;;13.88;3.30;;;9.30;99.90;;;;;;4964693;28;20034;-61
2023/12/09 10:49:02;;;;;;;12.23;3.42;;;9.30;99.90;;;;;;4969089;28;20035;-63
2023/12/09 10:51:27;;;;;;;19.75;3.38;;;9.40;99.90;;;;;;4971358;28;20127;-61
2023/12/09 10:53:53;;;;;;;19.45;2.90;;;9.40;99.90;;;;;;4969522;28;20121;-61
2023/12/09 10:56:20;;;;;;;16.70;2.80;;;9.50;99.90;;;;;;4970802;28;20035;-62
2023/12/09 10:58:46;;;;;;;20.40;3.08;;;9.50;99.90;;;;;;4968370;28;20033;-62
2023/12/09 11:01:14;;;;;;;15.52;2.65;;;9.50;99.90;;;;;;4968735;28;20259;-61
2023/12/09 11:03:39;;;;;;;13.73;2.60;;;9.60;99.90;;;;;;4965651;28;20485;-61
2023/12/09 11:06:06;;;;;;;18.80;3.05;;;9.60;99.90;;;;;;4963737;28;20027;-61
2023/12/09 11:08:35;;;;;;;17.73;2.92;;;9.60;99.90;;;;;;4971168;28;20045;-62
2023/12/09 11:11:05;;;;;;;16.08;3.45;;;9.60;99.90;;;;;;4966419;28;20042;-60
2023/12/09 11:13:33;;;;;;;16.25;2.83;;;9.60;99.90;;;;;;4969630;28;20110;-61
2023/12/09 11:16:11;;;;;;;21.50;2.83;;;9.60;99.90;;;;;;4966012;28;20038;-60
2023/12/09 11:18:56;;;;;;;16.77;3.47;;;9.60;99.90;;;;;;4968484;28;20046;-61
2023/12/09 11:21:28;;;;;;;15.20;2.05;;;9.60;99.90;;;;;;4964195;28;20501;-61
2023/12/09 11:23:55;;;;;;;16.73;3.65;;;9.60;99.90;;;;;;4967168;28;20031;-60
2023/12/09 11:26:47;;;;;;;25.67;2.75;;;9.50;99.90;;;;;;4967097;28;20015;-61
2023/12/09 11:29:20;;;;;;;12.35;2.05;;;9.50;99.90;;;;;;4961153;28;20117;-62
2023/12/09 11:31:48;;;;;;;19.70;3.50;;;9.50;99.90;;;;;;4968259;28;20111;-62
2023/12/09 11:34:19;;;;;;;17.25;3.00;;;9.60;99.90;;;;;;4968639;28;20036;-61
2023/12/09 11:36:46;;;;;;;9.38;2.08;;;9.60;99.90;;;;;;4965238;28;20492;-61
2023/12/09 11:39:19;;;;;;;17.33;2.22;;;9.60;99.90;;;;;;4964713;28;20109;-61
2023/12/09 11:41:46;;;;;;;17.80;2.40;;;9.60;99.90;;;;;;4965232;28;20101;-61
2023/12/09 11:44:12;;;;;;;8.95;2.22;;;9.60;99.90;;;;;;4969030;28;20045;-61
2023/12/09 11:46:38;;;;;;;18.92;2.08;;;9.60;99.90;;;;;;4968276;28;20035;-62
2023/12/09 11:49:06;;;;;;;9.02;1.70;;;9.60;99.90;;;;;;4966019;28;20066;-62
2023/12/09 11:51:35;;;;;;;18.83;2.50;;;9.60;99.90;;;;;;4971691;28;20023;-61
2023/12/09 11:54:09;;;;;;;10.77;2.35;;;9.50;99.90;;;;;;4966131;28;20029;-62
2023/12/09 11:56:36;;;;;;;;;;;9.60;99.90;;;;;;4964901;28;20030;-62
2023/12/09 11:59:02;;;;;;;12.30;1.60;;;9.60;99.90;;;;;;4966782;28;19933;-61
2023/12/09 12:01:29;;;;;;;16.50;2.05;;;9.60;99.90;;;;;;4964412;28;20505;-60
2023/12/09 12:03:55;;;;;;;9.20;1.50;;;9.60;99.90;;;;;;4965998;28;20033;-61
2023/12/09 12:06:22;;;;;;;9.95;1.52;;;9.60;99.90;;;;;;4961428;28;20058;-61
2023/12/09 12:08:48;;;;;;;11.65;2.67;;;9.70;99.90;;;;;;4969171;28;20191;-58
2023/12/09 12:11:16;;;;;;;10.13;1.85;;;9.60;99.90;;;;;;4968995;28;20109;-61
2023/12/09 12:13:41;;;;;;;12.00;2.08;;;9.60;99.90;;;;;;4965794;28;20060;-62
2023/12/09 12:16:08;;;;;;;5.13;1.50;;;9.60;99.90;;;;;;4969546;28;20054;-61
2023/12/09 12:18:34;;;;;;;13.52;1.70;;;9.60;99.90;;;;;;4965152;28;20058;-61
2023/12/09 12:21:00;;;;;;;5.25;1.50;;;9.50;99.90;;;;;;4963847;28;20020;-60
2023/12/09 12:23:26;;;;;;;6.47;1.52;;;9.50;99.90;;;;;;4971426;28;20078;-62
2023/12/09 12:25:58;;;;;;;9.38;2.15;;;9.40;99.90;;;;;;4968365;28;20465;-61
2023/12/09 12:28:24;;;;;;;7.22;1.83;;;9.30;99.90;;;;;;4968833;28;20063;-61
2023/12/09 12:30:55;;;;;;;8.90;2.00;;;9.30;99.90;;;;;;4964693;28;20074;-62
2023/12/09 12:33:22;;;;;;;10.20;2.15;;;9.20;99.90;;;;;;4965043;28;20101;-61
2023/12/09 12:35:53;;;;;;;8.77;1.95;;;9.20;99.90;;;;;;4967608;28;20158;-62
2023/12/09 12:38:20;;;;;;;14.07;2.20;;;9.20;99.90;;;;;;4968006;28;20035;-61
2023/12/09 12:40:46;;;;;;;10.43;1.52;;;9.20;99.90;;;;;;4967006;28;20019;-61
2023/12/09 12:43:13;;;;;;;8.77;1.38;;;9.20;99.90;;;;;;4968425;28;20375;-62
2023/12/09 12:45:40;;;;;;;14.95;1.63;;;9.20;99.90;;;;;;4966396;28;20505;-61